createdAt,value
2022-08-23T00:02:27.276Z,14.69
2022-08-23T00:05:08.817Z,14.71
2022-08-23T00:07:43.618Z,14.70
2022-08-23T00:10:14.107Z,14.77
2022-08-23T00:12:42.756Z,14.67
2022-08-23T00:15:12.909Z,14.64
2022-08-23T00:17:42.222Z,14.66
2022-08-23T00:20:14.377Z,14.69
2022-08-23T00:22:41.789Z,14.64
2022-08-23T00:25:12.070Z,14.64
2022-08-23T00:27:39.511Z,14.65
2022-08-23T00:30:09.151Z,14.67
2022-08-23T00:32:38.174Z,14.62
2022-08-23T00:35:07.054Z,14.69
2022-08-23T00:37:34.870Z,14.63
2022-08-23T00:40:02.432Z,14.62
2022-08-23T00:43:03.480Z,14.62
2022-08-23T00:46:00.517Z,14.55
2022-08-23T00:48:28.035Z,14.60
2022-08-23T00:50:59.996Z,14.60
2022-08-23T00:53:31.654Z,14.57
2022-08-23T00:56:03.300Z,14.58
2022-08-23T00:58:30.858Z,14.59
2022-08-23T01:01:01.006Z,14.55
2022-08-23T01:03:38.487Z,14.50
2022-08-23T01:06:32.553Z,14.62
2022-08-23T01:09:07.850Z,14.61
2022-08-23T01:11:41.831Z,14.60
2022-08-23T01:14:17.132Z,14.59
2022-08-23T01:17:00.806Z,14.61
2022-08-23T01:19:38.808Z,14.61
2022-08-23T01:22:12.195Z,14.62
2022-08-23T01:25:08.390Z,14.56
2022-08-23T01:27:29.906Z,14.61
2022-08-23T01:29:59.449Z,14.65
2022-08-23T01:32:27.406Z,14.71
2022-08-23T01:34:54.823Z,14.67
2022-08-23T01:37:22.169Z,14.72
2022-08-23T01:39:50.846Z,14.62
2022-08-23T01:42:18.423Z,14.60
2022-08-23T01:44:45.927Z,14.62
2022-08-23T01:47:13.109Z,14.59
2022-08-23T01:49:40.536Z,14.61
2022-08-23T01:52:07.822Z,14.56
2022-08-23T01:54:35.200Z,14.58
2022-08-23T01:57:02.610Z,14.59
2022-08-23T01:59:30.003Z,14.56
2022-08-23T02:01:58.549Z,14.54
2022-08-23T02:04:25.939Z,14.57
2022-08-23T02:06:53.731Z,14.53
2022-08-23T02:09:25.721Z,14.53
2022-08-23T02:11:56.945Z,14.51
2022-08-23T02:14:24.567Z,14.58
2022-08-23T02:17:04.277Z,14.67
2022-08-23T02:19:34.576Z,14.67
2022-08-23T02:22:04.194Z,14.69
2022-08-23T02:24:31.997Z,14.74
2022-08-23T02:27:01.930Z,14.74
2022-08-23T02:29:30.491Z,14.79
2022-08-23T02:32:01.657Z,14.73
2022-08-23T02:37:14.614Z,14.74
2022-08-23T02:39:42.682Z,14.72
2022-08-23T02:42:11.865Z,14.74
2022-08-23T02:44:42.912Z,14.76
2022-08-23T02:47:12.024Z,14.87
2022-08-23T02:49:42.873Z,14.89
2022-08-23T02:52:10.252Z,14.81
2022-08-23T02:54:38.134Z,14.77
2022-08-23T02:57:06.339Z,14.74
2022-08-23T02:59:34.630Z,14.74
2022-08-23T03:02:02.102Z,14.69
2022-08-23T03:04:34.808Z,14.73
2022-08-23T03:07:02.107Z,14.67
2022-08-23T03:09:29.517Z,14.64
2022-08-23T03:11:56.819Z,14.62
2022-08-23T03:14:25.350Z,14.68
2022-08-23T03:16:52.697Z,14.67
2022-08-23T03:19:21.964Z,14.64
2022-08-23T03:21:49.266Z,14.67
2022-08-23T03:24:19.268Z,14.64
2022-08-23T03:26:46.684Z,14.67
2022-08-23T03:29:16.856Z,14.72
2022-08-23T03:31:59.299Z,14.75
2022-08-23T03:34:27.227Z,14.77
2022-08-23T03:36:56.319Z,14.78
2022-08-23T03:39:23.842Z,14.77
2022-08-23T03:41:52.157Z,14.79
2022-08-23T03:44:19.822Z,14.81
2022-08-23T03:46:48.323Z,14.88
2022-08-23T03:49:15.537Z,14.81
2022-08-23T03:51:52.329Z,14.69
2022-08-23T03:54:20.709Z,14.75
2022-08-23T03:57:00.467Z,14.81
2022-08-23T03:59:32.604Z,14.80
2022-08-23T04:02:01.221Z,14.81
2022-08-23T04:04:30.304Z,14.80
2022-08-23T04:07:21.889Z,14.78
2022-08-23T04:09:55.275Z,14.73
2022-08-23T04:12:25.712Z,14.76
2022-08-23T04:14:53.776Z,14.72
2022-08-23T04:17:22.609Z,14.73
2022-08-23T04:19:51.325Z,14.72
2022-08-23T04:22:20.214Z,14.72
2022-08-23T04:24:48.362Z,14.74
2022-08-23T04:27:17.039Z,14.78
2022-08-23T04:29:45.801Z,14.74
2022-08-23T04:32:14.771Z,14.74
2022-08-23T04:34:55.381Z,14.68
2022-08-23T04:37:23.377Z,14.69
2022-08-23T04:40:10.144Z,14.69
2022-08-23T04:42:43.156Z,14.71
2022-08-23T04:45:12.473Z,14.65
2022-08-23T04:47:44.878Z,14.61
2022-08-23T04:50:12.556Z,14.63
2022-08-23T04:52:59.940Z,14.65
2022-08-23T04:55:29.757Z,14.65
2022-08-23T04:58:07.829Z,14.65
2022-08-23T05:00:44.653Z,14.66
2022-08-23T05:03:14.893Z,14.60
2022-08-23T05:05:42.712Z,14.67
2022-08-23T05:08:11.611Z,14.68
2022-08-23T05:10:38.888Z,14.70
2022-08-23T05:13:06.061Z,14.77
2022-08-23T05:15:33.337Z,14.74
2022-08-23T05:18:05.780Z,14.81
2022-08-23T05:20:35.727Z,14.82
2022-08-23T05:23:03.242Z,14.81
2022-08-23T05:25:52.531Z,14.82
2022-08-23T05:28:50.307Z,14.87
2022-08-23T05:31:24.006Z,14.85
2022-08-23T05:33:54.316Z,14.85
2022-08-23T05:36:31.689Z,14.84
2022-08-23T05:38:58.896Z,14.87
2022-08-23T05:41:37.812Z,14.83
2022-08-23T05:44:08.304Z,14.85
2022-08-23T05:46:36.794Z,14.83
2022-08-23T05:49:23.688Z,14.83
2022-08-23T05:51:52.059Z,14.90
2022-08-23T05:54:21.571Z,14.84
2022-08-23T05:57:02.712Z,14.90
2022-08-23T05:59:30.223Z,14.84
2022-08-23T06:01:57.724Z,14.85
2022-08-23T06:04:25.396Z,14.92
2022-08-23T06:06:53.843Z,14.94
2022-08-23T06:09:21.316Z,14.92
2022-08-23T06:11:48.935Z,14.88
2022-08-23T06:14:18.316Z,14.86
2022-08-23T06:16:51.610Z,14.93
2022-08-23T06:19:23.910Z,14.91
2022-08-23T06:22:09.790Z,14.90
2022-08-23T06:24:41.192Z,14.91
2022-08-23T06:27:13.669Z,14.87
2022-08-23T06:29:42.275Z,14.91
2022-08-23T06:32:28.197Z,14.90
2022-08-23T06:35:38.344Z,14.84
2022-08-23T06:38:09.330Z,14.92
2022-08-23T06:40:48.735Z,14.91
2022-08-23T06:43:25.716Z,14.93
2022-08-23T06:46:13.585Z,14.96
2022-08-23T06:48:43.234Z,14.92
2022-08-23T06:51:40.959Z,15.00
2022-08-23T06:54:20.282Z,15.08
2022-08-23T06:56:58.467Z,15.09
2022-08-23T06:59:30.077Z,15.07
2022-08-23T07:02:00.539Z,15.15
2022-08-23T07:04:46.394Z,15.12
2022-08-23T07:07:41.193Z,15.12
2022-08-23T07:10:13.860Z,15.07
2022-08-23T07:12:42.777Z,15.11
2022-08-23T07:15:13.969Z,15.15
2022-08-23T07:17:46.378Z,15.16
2022-08-23T07:20:14.109Z,15.21
2022-08-23T07:22:44.585Z,15.21
2022-08-23T07:25:12.521Z,15.27
2022-08-23T07:27:40.796Z,15.33
2022-08-23T07:30:09.742Z,15.41
2022-08-23T07:32:40.540Z,15.39
2022-08-23T07:35:40.181Z,15.45
2022-08-23T07:38:08.168Z,15.48
2022-08-23T07:40:38.743Z,15.47
2022-08-23T07:43:06.984Z,15.48
2022-08-23T07:45:36.574Z,15.57
2022-08-23T07:48:05.216Z,15.59
2022-08-23T07:50:40.793Z,15.64
2022-08-23T07:53:37.310Z,15.66
2022-08-23T07:56:11.083Z,15.65
2022-08-23T07:59:01.924Z,15.66
2022-08-23T08:01:41.498Z,15.66
2022-08-23T08:04:09.313Z,15.69
2022-08-23T08:06:46.146Z,15.74
2022-08-23T08:09:15.690Z,15.74
2022-08-23T08:11:47.958Z,15.82
2022-08-23T08:14:19.570Z,15.81
2022-08-23T08:16:56.338Z,15.84
2022-08-23T08:19:41.708Z,15.89
2022-08-23T08:22:27.850Z,15.90
2022-08-23T08:25:15.289Z,15.97
2022-08-23T08:27:43.750Z,16.08
2022-08-23T08:30:11.803Z,16.07
2022-08-23T08:32:46.952Z,16.22
2022-08-23T08:35:16.016Z,16.32
2022-08-23T08:37:44.028Z,16.38
2022-08-23T08:40:11.498Z,16.44
2022-08-23T08:42:50.896Z,16.46
2022-08-23T08:45:27.732Z,16.56
2022-08-23T08:48:06.311Z,16.48
2022-08-23T08:50:49.798Z,16.59
2022-08-23T08:53:25.440Z,16.66
2022-08-23T08:56:25.184Z,16.63
2022-08-23T08:59:23.781Z,16.67
2022-08-23T09:01:51.693Z,16.78
2022-08-23T09:04:26.846Z,16.91
2022-08-23T09:07:11.268Z,16.93
2022-08-23T09:10:05.186Z,17.10
2022-08-23T09:12:59.594Z,17.28
2022-08-23T09:15:47.286Z,17.40
2022-08-23T09:18:17.028Z,17.48
2022-08-23T09:20:53.423Z,17.58
2022-08-23T09:23:27.551Z,17.69
2022-08-23T09:26:03.878Z,17.78
2022-08-23T09:28:38.960Z,17.80
2022-08-23T09:31:08.236Z,17.83
2022-08-23T09:33:42.858Z,18.01
2022-08-23T09:36:31.521Z,18.06
2022-08-23T09:39:07.497Z,18.07
2022-08-23T09:41:41.617Z,18.10
2022-08-23T09:44:17.023Z,18.21
2022-08-23T09:47:08.562Z,18.09
2022-08-23T09:49:54.472Z,18.21
2022-08-23T09:52:37.752Z,18.09
2022-08-23T09:55:42.251Z,18.24
2022-08-23T09:58:36.153Z,18.25
2022-08-23T10:01:39.281Z,18.27
2022-08-23T10:04:21.397Z,18.33
2022-08-23T10:06:49.286Z,18.40
2022-08-23T10:09:37.078Z,18.57
2022-08-23T10:12:07.506Z,18.57
2022-08-23T10:14:35.640Z,18.41
2022-08-23T10:17:15.388Z,18.30
2022-08-23T10:19:58.817Z,18.21
2022-08-23T10:22:28.673Z,18.22
2022-08-23T10:25:26.741Z,18.23
2022-08-23T10:28:22.186Z,18.35
2022-08-23T10:31:34.168Z,18.47
2022-08-23T10:34:33.321Z,18.50
2022-08-23T10:37:30.697Z,18.63
2022-08-23T10:40:17.376Z,18.62
2022-08-23T10:42:56.974Z,18.63
2022-08-23T10:45:31.233Z,18.72
2022-08-23T10:48:21.332Z,18.73
2022-08-23T10:50:55.781Z,18.73
2022-08-23T10:53:35.830Z,18.74
2022-08-23T10:56:06.937Z,18.70
2022-08-23T10:58:55.096Z,18.71
2022-08-23T11:01:41.095Z,18.63
2022-08-23T11:04:23.890Z,18.60
2022-08-23T11:07:26.878Z,18.70
2022-08-23T11:10:17.999Z,18.77
2022-08-23T11:12:54.560Z,18.85
2022-08-23T11:15:45.101Z,18.82
2022-08-23T11:18:41.417Z,18.82
2022-08-23T11:21:18.336Z,18.66
2022-08-23T11:23:59.111Z,18.61
2022-08-23T11:26:36.390Z,18.58
2022-08-23T11:29:06.722Z,18.56
2022-08-23T11:31:58.762Z,18.52
2022-08-23T11:35:10.400Z,18.56
2022-08-23T11:37:53.374Z,18.52
2022-08-23T11:40:49.650Z,18.53
2022-08-23T11:43:32.789Z,18.56
2022-08-23T11:46:26.861Z,18.71
2022-08-23T11:49:13.724Z,18.86
2022-08-23T11:51:50.372Z,18.93
2022-08-23T11:54:42.040Z,19.05
2022-08-23T11:57:19.828Z,19.11
2022-08-23T11:59:58.915Z,19.21
2022-08-23T12:02:38.094Z,19.18
2022-08-23T12:05:43.076Z,19.08
2022-08-23T12:08:13.969Z,19.02
2022-08-23T12:10:41.150Z,19.03
2022-08-23T12:13:20.642Z,19.10
2022-08-23T12:16:26.156Z,19.17
2022-08-23T12:19:01.429Z,19.27
2022-08-23T12:21:34.490Z,19.34
2022-08-23T12:24:16.363Z,19.30
2022-08-23T12:27:13.135Z,19.31
2022-08-23T12:29:49.510Z,19.22
2022-08-23T12:32:21.978Z,19.21
2022-08-23T12:35:10.229Z,19.35
2022-08-23T12:37:57.913Z,19.34
2022-08-23T12:40:35.986Z,19.41
2022-08-23T12:43:11.822Z,19.38
2022-08-23T12:45:49.729Z,19.40
2022-08-23T12:48:21.921Z,19.37
2022-08-23T12:50:59.396Z,19.34
2022-08-23T12:53:33.381Z,19.34
2022-08-23T12:56:08.244Z,19.36
2022-08-23T12:58:38.964Z,19.42
2022-08-23T13:01:18.136Z,19.37
2022-08-23T13:03:50.858Z,19.32
2022-08-23T13:06:30.135Z,19.16
2022-08-23T13:09:02.667Z,19.21
2022-08-23T13:11:33.468Z,19.14
2022-08-23T13:14:01.370Z,19.19
2022-08-23T13:16:38.204Z,19.16
2022-08-23T13:19:23.627Z,19.03
2022-08-23T13:22:37.732Z,19.01
2022-08-23T13:25:27.432Z,19.01
2022-08-23T13:27:56.256Z,18.91
2022-08-23T13:30:29.845Z,18.81
2022-08-23T13:33:07.645Z,18.71
2022-08-23T13:35:35.282Z,18.81
2022-08-23T13:38:08.727Z,18.82
2022-08-23T13:40:59.880Z,18.77
2022-08-23T13:43:53.495Z,18.83
2022-08-23T13:46:26.930Z,18.92
2022-08-23T13:49:05.439Z,18.93
2022-08-23T13:51:45.774Z,18.94
2022-08-23T13:54:15.794Z,18.86
2022-08-23T13:56:48.305Z,18.90
2022-08-23T13:59:23.966Z,18.92
2022-08-23T14:02:01.603Z,18.96
2022-08-23T14:04:28.947Z,18.96
2022-08-23T14:06:56.197Z,18.98
2022-08-23T14:09:23.397Z,19.00
2022-08-23T14:11:54.541Z,19.05
2022-08-23T14:14:22.112Z,19.00
2022-08-23T14:16:49.790Z,19.06
2022-08-23T14:19:54.688Z,19.18
2022-08-23T14:22:05.107Z,19.15
2022-08-23T14:24:32.408Z,19.18
2022-08-23T14:27:00.768Z,19.15
2022-08-23T14:29:28.550Z,19.14
2022-08-23T14:31:57.032Z,19.16
2022-08-23T14:34:25.490Z,19.15
2022-08-23T14:39:41.002Z,19.17
2022-08-23T14:42:09.148Z,19.24
2022-08-23T14:44:36.599Z,19.26
2022-08-23T14:47:05.803Z,19.40
2022-08-23T14:49:33.994Z,19.43
2022-08-23T14:52:01.801Z,19.46
2022-08-23T14:54:29.156Z,19.49
2022-08-23T14:56:57.224Z,19.50
2022-08-23T14:59:24.624Z,19.52
2022-08-23T15:01:53.800Z,19.54
2022-08-23T15:04:24.488Z,19.60
2022-08-23T15:07:16.637Z,19.69
2022-08-23T15:09:41.429Z,19.72
2022-08-23T15:14:57.040Z,19.59
2022-08-23T15:17:30.287Z,19.60
2022-08-23T15:19:59.548Z,19.66
2022-08-23T15:22:26.842Z,19.56
2022-08-23T15:24:54.164Z,19.51
2022-08-23T15:27:22.419Z,19.56
2022-08-23T15:29:49.589Z,19.48
2022-08-23T15:32:22.228Z,19.46
2022-08-23T15:34:50.552Z,19.48
2022-08-23T15:37:18.247Z,19.50
2022-08-23T15:39:45.279Z,19.57
2022-08-23T15:42:16.579Z,19.49
2022-08-23T15:44:47.959Z,19.42
2022-08-23T15:47:24.445Z,19.46
2022-08-23T15:49:52.329Z,19.48
2022-08-23T15:52:20.196Z,19.48
2022-08-23T15:54:47.680Z,19.52
2022-08-23T15:57:22.215Z,19.59
2022-08-23T15:59:49.748Z,19.72
2022-08-23T16:02:17.262Z,19.80
2022-08-23T16:04:44.817Z,19.86
2022-08-23T16:07:15.346Z,19.79
2022-08-23T16:09:43.730Z,19.81
2022-08-23T16:12:11.057Z,19.74
2022-08-23T16:14:38.685Z,19.72
2022-08-23T16:17:07.703Z,19.71
2022-08-23T16:19:35.038Z,19.63
2022-08-23T16:22:02.840Z,19.75
2022-08-23T16:24:30.104Z,19.77
2022-08-23T16:26:57.845Z,19.76
2022-08-23T16:29:25.345Z,19.97
2022-08-23T16:31:52.766Z,20.20
2022-08-23T16:34:20.336Z,20.26
2022-08-23T16:36:53.827Z,20.20
2022-08-23T16:39:22.979Z,20.33
2022-08-23T16:41:50.746Z,20.31
2022-08-23T16:44:17.961Z,20.27
2022-08-23T16:46:45.272Z,20.37
2022-08-23T16:49:16.992Z,20.37
2022-08-23T16:51:44.951Z,20.40
2022-08-23T16:54:12.612Z,20.37
2022-08-23T16:56:41.047Z,20.25
2022-08-23T16:59:10.016Z,20.20
2022-08-23T17:01:52.688Z,20.18
2022-08-23T17:04:21.731Z,20.16
2022-08-23T17:06:48.979Z,20.16
2022-08-23T17:09:16.819Z,20.10
2022-08-23T17:11:44.507Z,20.11
2022-08-23T17:14:12.823Z,20.07
2022-08-23T17:16:41.710Z,20.00
2022-08-23T17:19:09.643Z,19.98
2022-08-23T17:21:37.467Z,19.94
2022-08-23T17:24:05.519Z,19.96
2022-08-23T17:26:33.306Z,19.86
2022-08-23T17:29:01.822Z,19.74
2022-08-23T17:31:29.257Z,19.73
2022-08-23T17:34:02.569Z,19.73
2022-08-23T17:36:42.522Z,19.64
2022-08-23T17:39:17.488Z,19.63
2022-08-23T17:41:45.684Z,19.63
2022-08-23T17:44:13.601Z,19.56
2022-08-23T17:46:41.908Z,19.52
2022-08-23T17:49:10.463Z,19.54
2022-08-23T17:51:38.526Z,19.49
2022-08-23T17:54:06.245Z,19.43
2022-08-23T17:56:33.647Z,19.38
2022-08-23T17:59:00.965Z,19.36
2022-08-23T18:01:31.274Z,19.39
2022-08-23T18:03:58.665Z,19.34
2022-08-23T18:06:27.476Z,19.37
2022-08-23T18:08:55.542Z,19.36
2022-08-23T18:11:23.024Z,19.24
2022-08-23T18:13:50.360Z,19.27
2022-08-23T18:16:17.799Z,19.27
2022-08-23T18:18:45.015Z,19.20
2022-08-23T18:21:13.084Z,19.21
2022-08-23T18:23:44.842Z,19.18
2022-08-23T18:26:33.557Z,19.27
2022-08-23T18:29:01.370Z,19.22
2022-08-23T18:31:29.264Z,19.25
2022-08-23T18:34:00.397Z,19.20
2022-08-23T18:36:29.415Z,19.16
2022-08-23T18:38:57.780Z,19.21
2022-08-23T18:41:25.540Z,19.19
2022-08-23T18:43:53.255Z,19.04
2022-08-23T18:46:20.823Z,18.94
2022-08-23T18:48:53.813Z,18.96
2022-08-23T18:51:22.255Z,18.96
2022-08-23T18:53:50.214Z,18.91
2022-08-23T18:56:17.984Z,18.91
2022-08-23T18:58:45.502Z,18.93
2022-08-23T19:01:30.199Z,18.97
2022-08-23T19:04:00.300Z,19.07
2022-08-23T19:06:28.443Z,19.14
2022-08-23T19:08:56.905Z,19.10
2022-08-23T19:11:25.371Z,19.04
2022-08-23T19:13:53.459Z,19.03
2022-08-23T19:16:21.970Z,18.95
2022-08-23T19:18:50.797Z,18.92
2022-08-23T19:21:21.527Z,18.86
2022-08-23T19:23:51.935Z,18.86
2022-08-23T19:26:23.655Z,18.83
2022-08-23T19:28:52.383Z,18.88
2022-08-23T19:31:19.782Z,18.92
2022-08-23T19:33:47.340Z,18.90
2022-08-23T19:36:35.658Z,18.91
2022-08-23T19:39:02.598Z,18.94
2022-08-23T19:41:30.397Z,18.96
2022-08-23T19:43:58.436Z,18.95
2022-08-23T19:46:26.060Z,18.91
2022-08-23T19:48:54.262Z,18.84
2022-08-23T19:51:21.928Z,18.82
2022-08-23T19:54:10.840Z,18.82
2022-08-23T19:56:46.856Z,18.77
2022-08-23T19:59:28.251Z,18.71
2022-08-23T20:01:58.069Z,18.71
2022-08-23T20:04:28.317Z,18.78
2022-08-23T20:06:58.000Z,18.81
2022-08-23T20:09:28.749Z,18.77
2022-08-23T20:11:56.845Z,18.78
2022-08-23T20:14:28.610Z,18.77
2022-08-23T22:09:58.890Z,18.07
2022-08-23T22:12:26.868Z,18.01
2022-08-23T22:14:56.754Z,17.91
2022-08-23T22:22:14.540Z,17.90
2022-08-23T22:25:08.827Z,17.90
2022-08-23T22:28:01.364Z,17.89
2022-08-23T22:30:28.821Z,17.90
2022-08-23T22:32:56.134Z,18.01
2022-08-23T22:35:28.052Z,18.09
2022-08-23T22:50:45.509Z,17.87
2022-08-23T23:15:15.117Z,17.81
2022-08-23T23:17:58.048Z,17.76
2022-08-23T23:20:40.308Z,17.70
2022-08-23T23:39:17.139Z,17.57
2022-08-23T23:41:45.845Z,17.63
2022-08-23T23:44:13.279Z,17.65
2022-08-23T23:46:42.013Z,17.64
2022-08-23T23:49:10.727Z,17.64
2022-08-23T23:51:38.279Z,17.65
2022-08-23T23:54:07.424Z,17.73
2022-08-23T23:56:34.931Z,17.71
2022-08-23T23:59:02.132Z,17.67
